sensor_id;sensor_type;location;lat;lon;timestamp;pressure;altitude;pressure_sealevel;temperature;humidity
60920;BME280;59039;52.108;19.942;2023-02-01T00:01:25;99446.23;;;3.44;85.65
60920;BME280;59039;52.108;19.942;2023-02-01T00:03:53;99443.73;;;3.46;85.26
60920;BME280;59039;52.108;19.942;2023-02-01T00:06:21;99448.27;;;3.47;85.21
60920;BME280;59039;52.108;19.942;2023-02-01T00:08:51;99455.05;;;3.47;85.08
60920;BME280;59039;52.108;19.942;2023-02-01T00:11:17;99459.27;;;3.48;84.77
60920;BME280;59039;52.108;19.942;2023-02-01T00:13:50;99463.96;;;3.48;84.88
60920;BME280;59039;52.108;19.942;2023-02-01T00:16:28;99469.61;;;3.47;85.21
60920;BME280;59039;52.108;19.942;2023-02-01T00:19:25;99476.13;;;3.46;85.12
60920;BME280;59039;52.108;19.942;2023-02-01T00:21:53;99477.92;;;3.46;84.78
60920;BME280;59039;52.108;19.942;2023-02-01T00:24:22;99484.09;;;3.47;84.67
60920;BME280;59039;52.108;19.942;2023-02-01T00:26:49;99485.52;;;3.49;84.49
60920;BME280;59039;52.108;19.942;2023-02-01T00:29:19;99484.80;;;3.49;84.30
60920;BME280;59039;52.108;19.942;2023-02-01T00:31:45;99483.70;;;3.49;84.16
60920;BME280;59039;52.108;19.942;2023-02-01T00:34:15;99483.88;;;3.49;83.83
60920;BME280;59039;52.108;19.942;2023-02-01T00:36:42;99485.40;;;3.48;83.46
60920;BME280;59039;52.108;19.942;2023-02-01T00:39:11;99483.80;;;3.46;82.78
60920;BME280;59039;52.108;19.942;2023-02-01T00:41:40;99486.30;;;3.44;81.99
60920;BME280;59039;52.108;19.942;2023-02-01T00:44:10;99489.46;;;3.43;81.54
60920;BME280;59039;52.108;19.942;2023-02-01T00:46:36;99492.91;;;3.42;81.50
60920;BME280;59039;52.108;19.942;2023-02-01T00:49:12;99492.59;;;3.42;81.73
60920;BME280;59039;52.108;19.942;2023-02-01T00:51:39;99495.05;;;3.42;82.03
60920;BME280;59039;52.108;19.942;2023-02-01T00:54:10;99494.15;;;3.42;82.19
60920;BME280;59039;52.108;19.942;2023-02-01T00:57:17;99498.67;;;3.42;82.08
60920;BME280;59039;52.108;19.942;2023-02-01T00:59:44;99501.79;;;3.43;82.34
60920;BME280;59039;52.108;19.942;2023-02-01T01:02:12;99506.58;;;3.46;82.60
60920;BME280;59039;52.108;19.942;2023-02-01T01:04:51;99497.35;;;3.47;82.77
60920;BME280;59039;52.108;19.942;2023-02-01T01:09:55;99498.06;;;3.47;82.87
60920;BME280;59039;52.108;19.942;2023-02-01T01:12:23;99492.95;;;3.46;82.53
60920;BME280;59039;52.108;19.942;2023-02-01T01:15:02;99492.30;;;3.45;82.45
60920;BME280;59039;52.108;19.942;2023-02-01T01:17:40;99495.79;;;3.46;82.48
60920;BME280;59039;52.108;19.942;2023-02-01T01:20:14;99496.30;;;3.46;82.30
60920;BME280;59039;52.108;19.942;2023-02-01T01:22:47;99495.47;;;3.48;82.17
60920;BME280;59039;52.108;19.942;2023-02-01T01:25:16;99498.10;;;3.48;81.93
60920;BME280;59039;52.108;19.942;2023-02-01T01:27:47;99492.43;;;3.48;81.77
60920;BME280;59039;52.108;19.942;2023-02-01T01:30:12;99485.45;;;3.48;81.81
60920;BME280;59039;52.108;19.942;2023-02-01T01:32:47;99485.62;;;3.48;81.85
60920;BME280;59039;52.108;19.942;2023-02-01T01:35:12;99484.05;;;3.45;81.49
60920;BME280;59039;52.108;19.942;2023-02-01T01:37:40;99484.30;;;3.44;81.45
60920;BME280;59039;52.108;19.942;2023-02-01T01:40:28;99484.02;;;3.44;81.22
60920;BME280;59039;52.108;19.942;2023-02-01T01:42:53;99488.09;;;3.42;81.43
60920;BME280;59039;52.108;19.942;2023-02-01T01:45:38;99491.16;;;3.40;81.80
60920;BME280;59039;52.108;19.942;2023-02-01T01:48:08;99490.12;;;3.35;81.12
60920;BME280;59039;52.108;19.942;2023-02-01T01:51:17;99498.29;;;3.30;80.58
60920;BME280;59039;52.108;19.942;2023-02-01T01:54:01;99496.42;;;3.26;80.80
60920;BME280;59039;52.108;19.942;2023-02-01T01:56:32;99495.66;;;3.22;80.80
60920;BME280;59039;52.108;19.942;2023-02-01T01:59:07;99497.70;;;3.20;80.93
60920;BME280;59039;52.108;19.942;2023-02-01T02:01:36;99501.04;;;3.14;80.96
60920;BME280;59039;52.108;19.942;2023-02-01T02:04:11;99494.88;;;3.10;80.89
60920;BME280;59039;52.108;19.942;2023-02-01T02:07:30;99494.56;;;3.10;81.29
60920;BME280;59039;52.108;19.942;2023-02-01T02:09:48;99497.63;;;3.12;81.28
60920;BME280;59039;52.108;19.942;2023-02-01T02:15:19;99504.63;;;3.14;81.27
60920;BME280;59039;52.108;19.942;2023-02-01T02:18:19;99509.96;;;3.14;81.34
60920;BME280;59039;52.108;19.942;2023-02-01T02:21:23;99511.71;;;3.15;81.37
60920;BME280;59039;52.108;19.942;2023-02-01T02:24:17;99517.92;;;3.13;81.37
60920;BME280;59039;52.108;19.942;2023-02-01T02:27:18;99521.35;;;3.11;81.25
60920;BME280;59039;52.108;19.942;2023-02-01T02:30:00;99521.69;;;3.09;81.29
60920;BME280;59039;52.108;19.942;2023-02-01T02:38:13;99526.73;;;3.06;81.21
60920;BME280;59039;52.108;19.942;2023-02-01T02:40:51;99525.63;;;3.07;81.20
60920;BME280;59039;52.108;19.942;2023-02-01T02:43:22;99518.05;;;3.08;81.26
60920;BME280;59039;52.108;19.942;2023-02-01T02:45:53;99517.38;;;3.07;81.27
60920;BME280;59039;52.108;19.942;2023-02-01T02:54:21;99515.98;;;3.07;81.29
60920;BME280;59039;52.108;19.942;2023-02-01T02:56:55;99513.55;;;3.06;81.25
60920;BME280;59039;52.108;19.942;2023-02-01T02:59:26;99515.52;;;3.06;81.01
60920;BME280;59039;52.108;19.942;2023-02-01T03:02:09;99516.81;;;3.05;80.98
60920;BME280;59039;52.108;19.942;2023-02-01T03:04:59;99521.71;;;3.04;80.82
60920;BME280;59039;52.108;19.942;2023-02-01T03:10:13;99518.85;;;3.02;80.63
60920;BME280;59039;52.108;19.942;2023-02-01T03:12:45;99522.52;;;2.99;80.63
60920;BME280;59039;52.108;19.942;2023-02-01T03:15:14;99527.05;;;2.98;80.75
60920;BME280;59039;52.108;19.942;2023-02-01T03:20:21;99534.30;;;2.98;80.60
60920;BME280;59039;52.108;19.942;2023-02-01T03:22:48;99532.17;;;2.97;80.76
60920;BME280;59039;52.108;19.942;2023-02-01T03:25:23;99531.86;;;2.97;80.66
60920;BME280;59039;52.108;19.942;2023-02-01T03:28:03;99538.08;;;2.97;80.57
60920;BME280;59039;52.108;19.942;2023-02-01T03:33:03;99540.92;;;2.98;80.49
60920;BME280;59039;52.108;19.942;2023-02-01T03:39:00;99540.65;;;2.96;80.54
60920;BME280;59039;52.108;19.942;2023-02-01T03:44:39;99541.40;;;2.96;80.45
60920;BME280;59039;52.108;19.942;2023-02-01T03:50:03;99538.65;;;2.95;80.26
60920;BME280;59039;52.108;19.942;2023-02-01T03:52:42;99535.14;;;2.93;80.22
60920;BME280;59039;52.108;19.942;2023-02-01T03:55:15;99533.97;;;2.92;80.26
60920;BME280;59039;52.108;19.942;2023-02-01T03:58:11;99533.50;;;2.92;80.40
60920;BME280;59039;52.108;19.942;2023-02-01T04:00:46;99544.82;;;2.91;80.47
60920;BME280;59039;52.108;19.942;2023-02-01T04:03:17;99545.20;;;2.91;80.41
60920;BME280;59039;52.108;19.942;2023-02-01T04:05:52;99547.24;;;2.92;80.55
60920;BME280;59039;52.108;19.942;2023-02-01T04:08:24;99548.73;;;2.94;80.62
60920;BME280;59039;52.108;19.942;2023-02-01T04:10:49;99553.78;;;2.96;80.63
60920;BME280;59039;52.108;19.942;2023-02-01T04:13:15;99561.54;;;2.95;80.78
60920;BME280;59039;52.108;19.942;2023-02-01T04:15:43;99563.82;;;2.93;80.85
60920;BME280;59039;52.108;19.942;2023-02-01T04:18:08;99562.70;;;2.91;81.02
60920;BME280;59039;52.108;19.942;2023-02-01T04:20:40;99568.73;;;2.92;80.85
60920;BME280;59039;52.108;19.942;2023-02-01T04:23:05;99572.23;;;2.91;80.78
60920;BME280;59039;52.108;19.942;2023-02-01T04:25:41;99574.58;;;2.90;80.58
60920;BME280;59039;52.108;19.942;2023-02-01T04:28:10;99572.73;;;2.89;80.45
60920;BME280;59039;52.108;19.942;2023-02-01T04:30:35;99574.16;;;2.87;80.52
60920;BME280;59039;52.108;19.942;2023-02-01T04:33:11;99574.87;;;2.87;80.34
60920;BME280;59039;52.108;19.942;2023-02-01T04:35:40;99573.32;;;2.86;80.43
60920;BME280;59039;52.108;19.942;2023-02-01T04:38:08;99574.95;;;2.86;80.44
60920;BME280;59039;52.108;19.942;2023-02-01T04:40:33;99572.05;;;2.87;80.37
60920;BME280;59039;52.108;19.942;2023-02-01T04:43:06;99578.52;;;2.86;80.44
60920;BME280;59039;52.108;19.942;2023-02-01T04:45:31;99580.42;;;2.87;80.37
60920;BME280;59039;52.108;19.942;2023-02-01T04:47:57;99585.02;;;2.85;80.33
60920;BME280;59039;52.108;19.942;2023-02-01T04:50:27;99584.48;;;2.85;80.43
60920;BME280;59039;52.108;19.942;2023-02-01T04:55:49;99585.98;;;2.87;80.51
60920;BME280;59039;52.108;19.942;2023-02-01T05:01:09;99583.48;;;2.87;80.56
60920;BME280;59039;52.108;19.942;2023-02-01T05:03:35;99577.64;;;2.88;80.68
60920;BME280;59039;52.108;19.942;2023-02-01T05:06:03;99579.90;;;2.89;80.66
60920;BME280;59039;52.108;19.942;2023-02-01T05:11:31;99574.10;;;2.94;80.81
60920;BME280;59039;52.108;19.942;2023-02-01T05:13:58;99559.83;;;2.96;80.77
60920;BME280;59039;52.108;19.942;2023-02-01T05:19:12;99555.73;;;3.00;80.72
60920;BME280;59039;52.108;19.942;2023-02-01T05:21:48;99550.10;;;3.01;80.71
60920;BME280;59039;52.108;19.942;2023-02-01T05:24:14;99546.84;;;2.99;80.75
60920;BME280;59039;52.108;19.942;2023-02-01T05:26:42;99544.23;;;2.99;80.81
60920;BME280;59039;52.108;19.942;2023-02-01T05:29:28;99544.88;;;2.99;80.78
60920;BME280;59039;52.108;19.942;2023-02-01T05:31:53;99544.22;;;2.99;80.73
60920;BME280;59039;52.108;19.942;2023-02-01T05:34:28;99548.35;;;2.98;80.78
60920;BME280;59039;52.108;19.942;2023-02-01T05:37:01;99553.30;;;2.97;80.69
60920;BME280;59039;52.108;19.942;2023-02-01T05:39:29;99553.48;;;2.97;80.85
60920;BME280;59039;52.108;19.942;2023-02-01T05:41:57;99557.83;;;2.96;80.85
60920;BME280;59039;52.108;19.942;2023-02-01T05:44:43;99557.05;;;2.97;80.89
60920;BME280;59039;52.108;19.942;2023-02-01T05:47:08;99559.29;;;2.96;80.77
60920;BME280;59039;52.108;19.942;2023-02-01T05:49:36;99560.73;;;2.96;80.72
60920;BME280;59039;52.108;19.942;2023-02-01T05:52:02;99560.80;;;2.97;80.81
60920;BME280;59039;52.108;19.942;2023-02-01T05:54:30;99565.90;;;2.96;80.86
60920;BME280;59039;52.108;19.942;2023-02-01T05:56:56;99562.00;;;2.96;80.80
60920;BME280;59039;52.108;19.942;2023-02-01T05:59:24;99564.24;;;2.94;80.72
60920;BME280;59039;52.108;19.942;2023-02-01T06:01:49;99557.00;;;2.93;80.72
60920;BME280;59039;52.108;19.942;2023-02-01T06:04:18;99558.20;;;2.94;80.75
60920;BME280;59039;52.108;19.942;2023-02-01T06:06:48;99555.66;;;2.94;80.77
60920;BME280;59039;52.108;19.942;2023-02-01T06:09:35;99552.91;;;2.93;80.82
60920;BME280;59039;52.108;19.942;2023-02-01T06:11:59;99549.20;;;2.92;80.76
60920;BME280;59039;52.108;19.942;2023-02-01T06:14:25;99556.17;;;2.92;80.75
60920;BME280;59039;52.108;19.942;2023-02-01T06:16:50;99561.18;;;2.92;80.82
60920;BME280;59039;52.108;19.942;2023-02-01T06:19:18;99559.69;;;2.93;80.84
60920;BME280;59039;52.108;19.942;2023-02-01T06:21:43;99547.04;;;2.95;80.74
60920;BME280;59039;52.108;19.942;2023-02-01T06:24:09;99548.73;;;2.94;80.67
60920;BME280;59039;52.108;19.942;2023-02-01T06:26:34;99547.20;;;2.95;80.68
60920;BME280;59039;52.108;19.942;2023-02-01T06:29:00;99549.23;;;2.96;80.68
60920;BME280;59039;52.108;19.942;2023-02-01T06:31:30;99536.74;;;2.98;80.44
60920;BME280;59039;52.108;19.942;2023-02-01T06:33:56;99537.45;;;2.98;80.33
60920;BME280;59039;52.108;19.942;2023-02-01T06:36:27;99534.19;;;3.01;80.34
60920;BME280;59039;52.108;19.942;2023-02-01T06:38:53;99531.23;;;3.02;80.41
60920;BME280;59039;52.108;19.942;2023-02-01T06:41:18;99535.80;;;3.03;80.18
60920;BME280;59039;52.108;19.942;2023-02-01T06:43:46;99537.08;;;3.05;80.17
60920;BME280;59039;52.108;19.942;2023-02-01T06:46:13;99535.70;;;3.06;80.11
60920;BME280;59039;52.108;19.942;2023-02-01T06:48:54;99538.40;;;3.08;80.12
60920;BME280;59039;52.108;19.942;2023-02-01T06:51:26;99533.68;;;3.11;79.90
60920;BME280;59039;52.108;19.942;2023-02-01T06:53:52;99527.86;;;3.12;79.93
60920;BME280;59039;52.108;19.942;2023-02-01T06:56:37;99523.85;;;3.13;79.84
60920;BME280;59039;52.108;19.942;2023-02-01T06:59:04;99521.67;;;3.13;79.79
60920;BME280;59039;52.108;19.942;2023-02-01T07:01:29;99517.55;;;3.16;80.04
60920;BME280;59039;52.108;19.942;2023-02-01T07:04:08;99523.91;;;3.19;79.99
60920;BME280;59039;52.108;19.942;2023-02-01T07:06:40;99527.61;;;3.19;79.84
60920;BME280;59039;52.108;19.942;2023-02-01T07:09:13;99525.04;;;3.20;79.35
60920;BME280;59039;52.108;19.942;2023-02-01T07:11:38;99529.89;;;3.22;79.60
60920;BME280;59039;52.108;19.942;2023-02-01T07:14:03;99529.56;;;3.24;79.44
60920;BME280;59039;52.108;19.942;2023-02-01T07:16:38;99532.00;;;3.27;79.55
60920;BME280;59039;52.108;19.942;2023-02-01T07:19:13;99532.63;;;3.28;79.29
60920;BME280;59039;52.108;19.942;2023-02-01T07:21:48;99533.94;;;3.31;79.40
60920;BME280;59039;52.108;19.942;2023-02-01T07:24:15;99542.42;;;3.35;79.49
60920;BME280;59039;52.108;19.942;2023-02-01T07:26:41;99539.35;;;3.37;79.38
60920;BME280;59039;52.108;19.942;2023-02-01T07:31:58;99543.56;;;3.43;79.28
60920;BME280;59039;52.108;19.942;2023-02-01T07:34:24;99554.20;;;3.46;79.01
60920;BME280;59039;52.108;19.942;2023-02-01T07:36:54;99554.88;;;3.48;78.98
60920;BME280;59039;52.108;19.942;2023-02-01T07:39:19;99554.19;;;3.52;79.01
60920;BME280;59039;52.108;19.942;2023-02-01T07:41:56;99552.89;;;3.55;78.91
60920;BME280;59039;52.108;19.942;2023-02-01T07:44:41;99557.98;;;3.56;78.78
60920;BME280;59039;52.108;19.942;2023-02-01T07:47:15;99557.42;;;3.59;78.64
60920;BME280;59039;52.108;19.942;2023-02-01T07:49:49;99551.66;;;3.61;78.59
60920;BME280;59039;52.108;19.942;2023-02-01T07:52:38;99545.52;;;3.62;78.19
60920;BME280;59039;52.108;19.942;2023-02-01T07:55:06;99542.90;;;3.63;78.05
60920;BME280;59039;52.108;19.942;2023-02-01T07:58:20;99534.64;;;3.65;78.16
60920;BME280;59039;52.108;19.942;2023-02-01T08:00:20;99536.75;;;3.68;78.23
60920;BME280;59039;52.108;19.942;2023-02-01T08:02:45;99537.29;;;3.68;78.14
60920;BME280;59039;52.108;19.942;2023-02-01T08:05:11;99537.02;;;3.68;78.08
60920;BME280;59039;52.108;19.942;2023-02-01T08:07:50;99535.75;;;3.69;78.13
60920;BME280;59039;52.108;19.942;2023-02-01T08:10:19;99531.48;;;3.69;77.48
60920;BME280;59039;52.108;19.942;2023-02-01T08:12:57;99529.49;;;3.69;77.69
60920;BME280;59039;52.108;19.942;2023-02-01T08:15:32;99532.21;;;3.68;77.55
60920;BME280;59039;52.108;19.942;2023-02-01T08:18:00;99533.03;;;3.69;77.57
60920;BME280;59039;52.108;19.942;2023-02-01T08:20:33;99530.46;;;3.70;77.63
60920;BME280;59039;52.108;19.942;2023-02-01T08:23:22;99535.64;;;3.70;77.65
60920;BME280;59039;52.108;19.942;2023-02-01T08:26:11;99533.20;;;3.71;77.51
60920;BME280;59039;52.108;19.942;2023-02-01T08:28:38;99542.60;;;3.70;77.00
60920;BME280;59039;52.108;19.942;2023-02-01T08:33:42;99542.60;;;3.79;77.61
60920;BME280;59039;52.108;19.942;2023-02-01T08:36:10;99547.11;;;3.83;77.56
60920;BME280;59039;52.108;19.942;2023-02-01T08:38:39;99553.77;;;3.87;77.64
60920;BME280;59039;52.108;19.942;2023-02-01T08:41:23;99552.57;;;3.92;77.48
60920;BME280;59039;52.108;19.942;2023-02-01T08:43:49;99544.64;;;3.96;77.54
60920;BME280;59039;52.108;19.942;2023-02-01T08:46:55;99549.80;;;4.01;77.42
60920;BME280;59039;52.108;19.942;2023-02-01T08:49:25;99551.00;;;4.06;77.14
60920;BME280;59039;52.108;19.942;2023-02-01T08:51:50;99551.33;;;4.10;76.88
60920;BME280;59039;52.108;19.942;2023-02-01T08:54:37;99547.41;;;4.16;76.90
60920;BME280;59039;52.108;19.942;2023-02-01T08:57:04;99547.17;;;4.21;75.99
60920;BME280;59039;52.108;19.942;2023-02-01T08:59:50;99550.41;;;4.25;75.95
60920;BME280;59039;52.108;19.942;2023-02-01T09:02:27;99535.98;;;4.30;76.01
60920;BME280;59039;52.108;19.942;2023-02-01T09:04:56;99538.45;;;4.32;76.37
60920;BME280;59039;52.108;19.942;2023-02-01T09:07:35;99537.42;;;4.33;75.93
60920;BME280;59039;52.108;19.942;2023-02-01T09:12:39;99538.61;;;4.38;75.73
60920;BME280;59039;52.108;19.942;2023-02-01T09:15:13;99543.92;;;4.39;75.63
60920;BME280;59039;52.108;19.942;2023-02-01T09:17:38;99546.23;;;4.39;75.92
60920;BME280;59039;52.108;19.942;2023-02-01T09:20:29;99552.94;;;4.39;76.10
60920;BME280;59039;52.108;19.942;2023-02-01T09:22:57;99548.48;;;4.38;76.28
60920;BME280;59039;52.108;19.942;2023-02-01T09:25:23;99554.54;;;4.35;76.46
60920;BME280;59039;52.108;19.942;2023-02-01T09:27:48;99555.77;;;4.35;76.54
60920;BME280;59039;52.108;19.942;2023-02-01T09:30:16;99553.77;;;4.35;76.47
60920;BME280;59039;52.108;19.942;2023-02-01T09:32:45;99554.83;;;4.37;76.72
60920;BME280;59039;52.108;19.942;2023-02-01T09:35:11;99552.39;;;4.39;76.65
60920;BME280;59039;52.108;19.942;2023-02-01T09:37:39;99558.64;;;4.39;76.40
60920;BME280;59039;52.108;19.942;2023-02-01T09:40:27;99555.52;;;4.40;76.31
60920;BME280;59039;52.108;19.942;2023-02-01T09:45:49;99546.89;;;4.44;76.85
60920;BME280;59039;52.108;19.942;2023-02-01T09:51:43;99546.63;;;4.49;76.32
60920;BME280;59039;52.108;19.942;2023-02-01T10:00:25;99544.26;;;4.53;76.40
60920;BME280;59039;52.108;19.942;2023-02-01T10:02:54;99542.82;;;4.57;76.45
60920;BME280;59039;52.108;19.942;2023-02-01T10:14:59;99543.64;;;4.58;76.46
60920;BME280;59039;52.108;19.942;2023-02-01T10:28:52;99556.46;;;4.64;76.68
60920;BME280;59039;52.108;19.942;2023-02-01T10:31:39;99551.59;;;4.64;76.60
60920;BME280;59039;52.108;19.942;2023-02-01T10:37:26;99549.34;;;4.63;76.39
60920;BME280;59039;52.108;19.942;2023-02-01T10:40:16;99548.33;;;4.63;76.59
60920;BME280;59039;52.108;19.942;2023-02-01T10:42:59;99544.73;;;4.63;76.80
60920;BME280;59039;52.108;19.942;2023-02-01T10:48:22;99546.77;;;4.64;76.85
60920;BME280;59039;52.108;19.942;2023-02-01T10:51:14;99547.34;;;4.64;76.72
60920;BME280;59039;52.108;19.942;2023-02-01T10:56:56;99546.48;;;4.63;76.95
60920;BME280;59039;52.108;19.942;2023-02-01T10:59:33;99542.01;;;4.63;77.02
60920;BME280;59039;52.108;19.942;2023-02-01T11:02:27;99542.00;;;4.63;77.10
60920;BME280;59039;52.108;19.942;2023-02-01T11:05:01;99531.70;;;4.64;77.03
60920;BME280;59039;52.108;19.942;2023-02-01T11:07:49;99532.64;;;4.63;76.90
60920;BME280;59039;52.108;19.942;2023-02-01T11:13:18;99519.44;;;4.66;77.00
60920;BME280;59039;52.108;19.942;2023-02-01T11:15:55;99516.02;;;4.67;77.11
60920;BME280;59039;52.108;19.942;2023-02-01T11:18:48;99513.06;;;4.67;77.01
60920;BME280;59039;52.108;19.942;2023-02-01T11:21:23;99509.33;;;4.69;77.14
60920;BME280;59039;52.108;19.942;2023-02-01T11:24:03;99509.69;;;4.69;76.93
60920;BME280;59039;52.108;19.942;2023-02-01T11:29:14;99496.55;;;4.71;76.91
60920;BME280;59039;52.108;19.942;2023-02-01T11:31:45;99492.75;;;4.74;76.93
60920;BME280;59039;52.108;19.942;2023-02-01T11:34:17;99492.45;;;4.77;76.93
60920;BME280;59039;52.108;19.942;2023-02-01T11:36:48;99494.38;;;4.79;76.95
60920;BME280;59039;52.108;19.942;2023-02-01T11:39:33;99494.89;;;4.82;76.99
60920;BME280;59039;52.108;19.942;2023-02-01T11:42:16;99494.70;;;4.84;77.08
60920;BME280;59039;52.108;19.942;2023-02-01T11:48:30;99486.21;;;4.82;77.26
60920;BME280;59039;52.108;19.942;2023-02-01T11:54:20;99488.02;;;4.80;77.62
60920;BME280;59039;52.108;19.942;2023-02-01T11:58:18;99480.09;;;4.83;77.69
60920;BME280;59039;52.108;19.942;2023-02-01T12:00:32;99471.68;;;4.82;77.83
60920;BME280;59039;52.108;19.942;2023-02-01T12:03:39;99469.05;;;4.83;77.78
60920;BME280;59039;52.108;19.942;2023-02-01T12:06:18;99469.18;;;4.86;77.71
60920;BME280;59039;52.108;19.942;2023-02-01T12:21:06;99457.08;;;4.98;77.11
60920;BME280;59039;52.108;19.942;2023-02-01T12:36:05;99444.95;;;5.11;76.83
60920;BME280;59039;52.108;19.942;2023-02-01T12:50:08;99449.67;;;5.12;76.09
60920;BME280;59039;52.108;19.942;2023-02-01T12:52:46;99442.30;;;5.11;76.28
60920;BME280;59039;52.108;19.942;2023-02-01T12:59:12;99456.27;;;5.05;75.64
60920;BME280;59039;52.108;19.942;2023-02-01T13:04:59;99457.58;;;5.01;75.63
60920;BME280;59039;52.108;19.942;2023-02-01T13:07:45;99460.56;;;4.99;75.49
60920;BME280;59039;52.108;19.942;2023-02-01T13:17:22;99476.95;;;5.03;75.26
60920;BME280;59039;52.108;19.942;2023-02-01T13:19:57;99481.40;;;5.03;75.47
60920;BME280;59039;52.108;19.942;2023-02-01T13:25:49;99479.10;;;5.01;75.23
60920;BME280;59039;52.108;19.942;2023-02-01T13:28:20;99482.11;;;5.00;75.09
60920;BME280;59039;52.108;19.942;2023-02-01T13:42:53;99476.02;;;4.95;75.87
60920;BME280;59039;52.108;19.942;2023-02-01T13:45:25;99483.08;;;4.93;76.02
60920;BME280;59039;52.108;19.942;2023-02-01T13:47:56;99486.48;;;4.91;76.11
60920;BME280;59039;52.108;19.942;2023-02-01T13:50:42;99481.71;;;4.90;76.13
60920;BME280;59039;52.108;19.942;2023-02-01T13:58:40;99483.73;;;4.93;76.58
60920;BME280;59039;52.108;19.942;2023-02-01T14:01:41;99477.67;;;4.95;76.64
60920;BME280;59039;52.108;19.942;2023-02-01T14:05:00;99472.83;;;4.97;76.73
60920;BME280;59039;52.108;19.942;2023-02-01T14:12:49;99469.20;;;5.01;76.65
60920;BME280;59039;52.108;19.942;2023-02-01T14:15:25;99471.98;;;4.98;76.34
60920;BME280;59039;52.108;19.942;2023-02-01T14:17:51;99473.20;;;4.97;76.50
60920;BME280;59039;52.108;19.942;2023-02-01T14:23:37;99469.07;;;4.95;76.72
60920;BME280;59039;52.108;19.942;2023-02-01T14:26:09;99476.67;;;4.96;76.81
60920;BME280;59039;52.108;19.942;2023-02-01T14:28:39;99472.20;;;4.96;76.88
60920;BME280;59039;52.108;19.942;2023-02-01T14:31:15;99477.33;;;4.95;76.77
60920;BME280;59039;52.108;19.942;2023-02-01T14:33:42;99482.27;;;4.92;76.92
60920;BME280;59039;52.108;19.942;2023-02-01T14:38:53;99479.30;;;4.89;77.10
60920;BME280;59039;52.108;19.942;2023-02-01T14:41:40;99478.67;;;4.86;77.14
60920;BME280;59039;52.108;19.942;2023-02-01T14:44:36;99476.72;;;4.80;77.27
60920;BME280;59039;52.108;19.942;2023-02-01T14:56:13;99473.34;;;4.62;77.58
60920;BME280;59039;52.108;19.942;2023-02-01T14:59:06;99470.34;;;4.60;77.54
60920;BME280;59039;52.108;19.942;2023-02-01T15:01:52;99475.42;;;4.55;77.64
60920;BME280;59039;52.108;19.942;2023-02-01T15:04:19;99486.89;;;4.51;77.68
60920;BME280;59039;52.108;19.942;2023-02-01T15:06:48;99487.00;;;4.48;77.75
60920;BME280;59039;52.108;19.942;2023-02-01T15:12:02;99488.04;;;4.41;77.70
60920;BME280;59039;52.108;19.942;2023-02-01T15:14:43;99497.41;;;4.36;77.72
60920;BME280;59039;52.108;19.942;2023-02-01T15:17:38;99500.27;;;4.30;78.07
60920;BME280;59039;52.108;19.942;2023-02-01T15:23:04;99507.09;;;4.22;78.19
60920;BME280;59039;52.108;19.942;2023-02-01T15:25:37;99507.02;;;4.21;77.87
60920;BME280;59039;52.108;19.942;2023-02-01T15:28:14;99507.50;;;4.17;77.70
60920;BME280;59039;52.108;19.942;2023-02-01T15:30:40;99512.25;;;4.14;78.21
60920;BME280;59039;52.108;19.942;2023-02-01T15:33:18;99506.10;;;4.13;78.25
60920;BME280;59039;52.108;19.942;2023-02-01T15:41:05;99510.17;;;4.07;78.53
60920;BME280;59039;52.108;19.942;2023-02-01T15:43:33;99508.52;;;4.04;78.66
60920;BME280;59039;52.108;19.942;2023-02-01T15:46:00;99506.17;;;3.98;79.19
60920;BME280;59039;52.108;19.942;2023-02-01T15:51:11;99514.21;;;3.90;79.08
60920;BME280;59039;52.108;19.942;2023-02-01T15:53:37;99520.56;;;3.87;79.61
60920;BME280;59039;52.108;19.942;2023-02-01T15:56:04;99521.98;;;3.85;79.62
60920;BME280;59039;52.108;19.942;2023-02-01T15:58:30;99520.17;;;3.83;79.59
60920;BME280;59039;52.108;19.942;2023-02-01T16:01:04;99517.90;;;3.83;79.80
60920;BME280;59039;52.108;19.942;2023-02-01T16:03:41;99514.50;;;3.83;79.74
60920;BME280;59039;52.108;19.942;2023-02-01T16:09:10;99508.89;;;3.83;79.87
60920;BME280;59039;52.108;19.942;2023-02-01T16:11:55;99510.30;;;3.84;79.73
60920;BME280;59039;52.108;19.942;2023-02-01T16:14:21;99509.31;;;3.83;79.77
60920;BME280;59039;52.108;19.942;2023-02-01T16:16:47;99509.95;;;3.83;79.74
60920;BME280;59039;52.108;19.942;2023-02-01T16:19:20;99508.98;;;3.82;79.74
60920;BME280;59039;52.108;19.942;2023-02-01T16:21:49;99508.00;;;3.81;79.85
60920;BME280;59039;52.108;19.942;2023-02-01T16:24:14;99509.52;;;3.80;80.06
60920;BME280;59039;52.108;19.942;2023-02-01T16:26:40;99510.15;;;3.81;79.85
60920;BME280;59039;52.108;19.942;2023-02-01T16:29:06;99510.86;;;3.81;79.80
60920;BME280;59039;52.108;19.942;2023-02-01T16:31:39;99506.93;;;3.81;79.80
60920;BME280;59039;52.108;19.942;2023-02-01T16:34:05;99504.94;;;3.82;79.73
60920;BME280;59039;52.108;19.942;2023-02-01T16:39:15;99500.59;;;3.75;79.48
60920;BME280;59039;52.108;19.942;2023-02-01T16:41:41;99503.45;;;3.71;79.56
60920;BME280;59039;52.108;19.942;2023-02-01T16:44:06;99500.76;;;3.69;79.55
60920;BME280;59039;52.108;19.942;2023-02-01T16:46:35;99503.77;;;3.66;79.48
60920;BME280;59039;52.108;19.942;2023-02-01T16:49:03;99504.52;;;3.63;79.62
60920;BME280;59039;52.108;19.942;2023-02-01T16:51:31;99507.66;;;3.62;79.72
60920;BME280;59039;52.108;19.942;2023-02-01T16:53:57;99506.77;;;3.60;79.82
60920;BME280;59039;52.108;19.942;2023-02-01T16:56:29;99509.20;;;3.61;79.89
60920;BME280;59039;52.108;19.942;2023-02-01T16:58:55;99500.55;;;3.62;79.76
60920;BME280;59039;52.108;19.942;2023-02-01T17:01:20;99504.38;;;3.61;79.81
60920;BME280;59039;52.108;19.942;2023-02-01T17:03:46;99501.91;;;3.60;79.68
60920;BME280;59039;52.108;19.942;2023-02-01T17:06:16;99503.79;;;3.59;79.67
60920;BME280;59039;52.108;19.942;2023-02-01T17:08:48;99511.70;;;3.59;79.65
60920;BME280;59039;52.108;19.942;2023-02-01T17:11:15;99515.28;;;3.57;79.67
60920;BME280;59039;52.108;19.942;2023-02-01T17:13:41;99521.10;;;3.56;79.64